San Angelo's Hourly Summary for Friday, March 17, 2017
Hour Temp
(f)
RH
(%)
Solar Rad.
(MJ/m2)
Rainfall
(in)
Wind
(mph)
3/17/2017 12:00 AM 67 69 0 0 8.34
3/17/2017 1:00 AM 66 72 0 0 8.52
3/17/2017 2:00 AM 66 74 0 0 9.57
3/17/2017 3:00 AM 66 73 0 0 13.26
3/17/2017 4:00 AM 65 74 0 0 5.83
3/17/2017 5:00 AM 64 78 0 0 9.9
3/17/2017 6:00 AM 64 85 0 0 7.87
3/17/2017 7:00 AM 64 84 0 0 9.21
3/17/2017 8:00 AM 64 84 0 0 8.97
3/17/2017 9:00 AM 64 81 0.14 0 6.95
3/17/2017 10:00 AM 66 75 0.63 0 10.05
3/17/2017 11:00 AM 67 69 1.15 0 10.4
3/17/2017 12:00 PM 70 64 2.34 0 12.17
3/17/2017 1:00 PM 72 59 2.86 0 11.74
3/17/2017 2:00 PM 75 53 3.06 0 11.31
3/17/2017 3:00 PM 77 47 2.99 0 10.21
3/17/2017 4:00 PM 80 42 2.67 0 8.74
3/17/2017 5:00 PM 83 34 2.15 0 7.59
3/17/2017 6:00 PM 84 32 1.48 0 7.22
3/17/2017 7:00 PM 84 31 0.75 0 6.14
3/17/2017 8:00 PM 82 32 0.13 0 5.39
3/17/2017 9:00 PM 77 36 0 0 2.18
3/17/2017 10:00 PM 76 42 0 0 5.55
3/17/2017 11:00 PM 73 47 0 0 7.14
Data Summary 71 59 20.35 0.00 8.51